Time;durP1;ratioP1;P1;durP2;ratioP2;P2;SDS_P1;SDS_P2;PMS_P1;PMS_P2;Temp;Humidity;BMP_temperature;BMP_pressure;BME280_temperature;BME280_humidity;BME280_pressure;Samples;Min_cycle;Max_cycle;Signal;HPM_P1;HPM_P2
2021/03/30 00:00:25;;;;;;;19.50;10.18;;;9.30;69.20;;;;;;4932090;29;20056;-85
2021/03/30 00:02:50;;;;;;;18.63;10.02;;;9.30;69.40;;;;;;4937903;29;20042;-84
2021/03/30 00:05:16;;;;;;;19.70;10.63;;;9.20;69.50;;;;;;4937606;29;20130;-82
2021/03/30 00:07:42;;;;;;;20.83;10.85;;;9.30;69.80;;;;;;4937675;29;20098;-84
2021/03/30 00:10:12;;;;;;;21.42;10.50;;;9.20;69.80;;;;;;4938062;29;20035;-85
2021/03/30 00:12:38;;;;;;;24.42;10.63;;;9.20;69.80;;;;;;4937755;29;20480;-83
2021/03/30 00:15:06;;;;;;;22.60;10.60;;;9.20;69.90;;;;;;4937611;29;20042;-83
2021/03/30 00:17:31;;;;;;;26.55;10.77;;;9.20;70.10;;;;;;4937918;29;20063;-84
2021/03/30 00:19:57;;;;;;;22.80;10.77;;;9.20;70.70;;;;;;4952745;29;20051;-85
2021/03/30 00:22:22;;;;;;;25.92;11.38;;;9.20;70.10;;;;;;4937367;29;20035;-85
2021/03/30 00:24:48;;;;;;;25.60;11.32;;;9.20;70.00;;;;;;4937497;29;20039;-85
2021/03/30 00:27:13;;;;;;;20.95;10.07;;;9.20;70.00;;;;;;4934778;29;20505;-85
2021/03/30 00:29:46;;;;;;;23.83;10.85;;;9.20;70.10;;;;;;4936176;29;20062;-85
2021/03/30 00:32:13;;;;;;;19.35;10.35;;;9.10;70.30;;;;;;4937353;29;20126;-85
2021/03/30 00:34:39;;;;;;;18.77;9.65;;;9.10;70.50;;;;;;4942039;28;20031;-84
2021/03/30 00:37:05;;;;;;;25.00;11.60;;;9.00;70.70;;;;;;4941501;29;20534;-85
2021/03/30 00:39:31;;;;;;;23.23;11.13;;;8.90;71.20;;;;;;4954412;29;20074;-85
2021/03/30 00:41:57;;;;;;;21.35;11.20;;;8.80;71.40;;;;;;4957616;29;20027;-85
2021/03/30 00:44:22;;;;;;;19.67;11.57;;;8.70;71.60;;;;;;4956636;28;20108;-85
2021/03/30 00:46:49;;;;;;;21.33;10.98;;;8.70;71.80;;;;;;4940223;29;20032;-84
2021/03/30 00:49:15;;;;;;;28.75;12.20;;;8.70;72.00;;;;;;4948483;28;20047;-85
2021/03/30 00:51:43;;;;;;;23.33;12.15;;;8.60;72.10;;;;;;4941064;29;20034;-85
2021/03/30 00:54:08;;;;;;;23.45;11.35;;;8.50;72.40;;;;;;4941102;29;20496;-84
2021/03/30 00:56:34;;;;;;;20.85;11.63;;;8.40;72.70;;;;;;4940842;28;20061;-85
2021/03/30 00:59:01;;;;;;;23.20;11.23;;;8.30;73.10;;;;;;4936616;29;20162;-84
2021/03/30 01:01:26;;;;;;;25.13;12.00;;;8.30;73.50;;;;;;4937568;29;20088;-84
2021/03/30 01:03:52;;;;;;;26.00;12.77;;;8.20;73.70;;;;;;4933598;29;20559;-84
2021/03/30 01:06:17;;;;;;;20.67;10.95;;;8.10;73.80;;;;;;4940996;29;20053;-84
2021/03/30 01:08:59;;;;;;;24.00;11.50;;;8.10;74.10;;;;;;4952997;29;20160;-84
2021/03/30 01:11:27;;;;;;;21.30;11.90;;;8.10;74.20;;;;;;4955446;29;20476;-85
2021/03/30 01:14:11;;;;;;;23.42;12.23;;;8.10;74.80;;;;;;4932751;29;20054;-84
2021/03/30 01:16:40;;;;;;;28.80;12.10;;;8.10;74.20;;;;;;4939949;29;20051;-84
2021/03/30 01:19:13;;;;;;;23.88;11.95;;;8.10;74.30;;;;;;4940508;29;20027;-85
2021/03/30 01:21:57;;;;;;;;;;;8.20;74.30;;;;;;4957140;29;20495;-84
2021/03/30 01:24:37;;;;;;;23.98;10.88;;;8.20;73.90;;;;;;4952990;28;19919;-84
2021/03/30 01:27:15;;;;;;;25.67;11.65;;;8.20;73.80;;;;;;4940089;29;20118;-84
2021/03/30 01:29:45;;;;;;;26.60;12.50;;;8.30;73.90;;;;;;4937805;29;20039;-84
2021/03/30 01:32:39;;;;;;;23.60;11.98;;;8.30;73.90;;;;;;4929905;29;20059;-83
2021/03/30 01:35:09;;;;;;;29.48;12.18;;;8.20;74.00;;;;;;4922093;29;20032;-83
2021/03/30 01:37:41;;;;;;;24.98;12.25;;;8.20;74.20;;;;;;4934302;29;20388;-83
2021/03/30 01:40:10;;;;;;;23.60;12.43;;;8.10;74.30;;;;;;4928529;29;20059;-83
2021/03/30 01:42:37;;;;;;;26.17;12.85;;;8.10;74.50;;;;;;4953153;29;20518;-83
2021/03/30 01:45:04;;;;;;;25.58;12.50;;;8.00;74.80;;;;;;4940175;29;20496;-83
2021/03/30 01:47:30;;;;;;;26.70;12.80;;;7.90;75.00;;;;;;4938715;29;20035;-83
2021/03/30 01:49:57;;;;;;;30.17;12.93;;;7.90;75.20;;;;;;4939605;29;20027;-83
2021/03/30 01:52:23;;;;;;;23.38;12.23;;;7.80;75.30;;;;;;4940276;29;20027;-84
2021/03/30 01:54:50;;;;;;;28.02;13.45;;;7.70;75.60;;;;;;4955763;29;20118;-84
2021/03/30 01:57:20;;;;;;;28.88;13.30;;;7.60;76.00;;;;;;4939644;29;20031;-84
2021/03/30 01:59:47;;;;;;;22.30;12.40;;;7.50;76.30;;;;;;4936515;29;20030;-85
2021/03/30 02:02:13;;;;;;;26.38;12.82;;;7.50;76.50;;;;;;4950348;29;21766;-85
2021/03/30 02:04:39;;;;;;;27.45;13.90;;;7.40;76.60;;;;;;4955833;29;20182;-85
2021/03/30 02:07:07;;;;;;;26.88;13.27;;;7.40;76.90;;;;;;4939075;29;20452;-82
2021/03/30 02:09:39;;;;;;;26.80;12.98;;;7.30;77.20;;;;;;4940038;29;20093;-83
2021/03/30 02:12:16;;;;;;;25.60;13.10;;;7.30;77.30;;;;;;4936782;29;20111;-83
2021/03/30 02:14:42;;;;;;;28.25;13.05;;;7.30;77.50;;;;;;4939727;29;20074;-84
2021/03/30 02:17:31;;;;;;;25.15;13.68;;;7.30;77.60;;;;;;4953625;29;20242;-84
2021/03/30 02:20:04;;;;;;;28.92;13.00;;;7.20;77.70;;;;;;4942765;29;20038;-83
2021/03/30 02:22:55;;;;;;;26.08;12.32;;;7.20;77.80;;;;;;4939317;29;20046;-84
2021/03/30 02:25:22;;;;;;;26.60;12.73;;;7.10;77.90;;;;;;4929184;29;20138;-83
2021/03/30 02:27:54;;;;;;;30.38;14.27;;;7.10;78.10;;;;;;4920389;29;20032;-84
2021/03/30 02:30:22;;;;;;;31.33;14.38;;;7.20;78.20;;;;;;4947979;28;20035;-84
2021/03/30 02:32:49;;;;;;;31.05;13.43;;;7.20;78.00;;;;;;4935134;29;20027;-85
2021/03/30 02:35:16;;;;;;;26.27;12.70;;;7.20;78.10;;;;;;4956696;29;20023;-84
2021/03/30 02:37:43;;;;;;;27.60;12.95;;;7.30;78.30;;;;;;4954861;29;20027;-84
2021/03/30 02:40:13;;;;;;;27.45;13.52;;;7.20;78.20;;;;;;4939371;29;20024;-84
2021/03/30 02:42:41;;;;;;;27.38;12.82;;;7.20;78.20;;;;;;4954607;29;20027;-84
2021/03/30 02:45:10;;;;;;;28.88;14.02;;;7.20;78.40;;;;;;4938939;29;20476;-83
2021/03/30 02:47:37;;;;;;;26.88;13.40;;;7.10;78.60;;;;;;4954227;29;20027;-84
2021/03/30 02:50:04;;;;;;;29.90;13.70;;;7.00;78.80;;;;;;4930651;29;20481;-84
2021/03/30 02:52:30;;;;;;;26.90;14.68;;;7.00;79.10;;;;;;4941991;29;20086;-83
2021/03/30 02:54:57;;;;;;;26.60;14.10;;;6.90;79.20;;;;;;4939778;29;20028;-84
2021/03/30 02:57:23;;;;;;;26.83;12.85;;;6.90;79.40;;;;;;4953478;28;20035;-84
2021/03/30 02:59:51;;;;;;;28.77;13.50;;;6.80;79.60;;;;;;4938618;29;20117;-84
2021/03/30 03:02:17;;;;;;;30.40;13.85;;;6.70;79.80;;;;;;4938339;29;20031;-83
2021/03/30 03:04:47;;;;;;;33.25;14.25;;;6.60;79.90;;;;;;4933551;29;20046;-84
2021/03/30 03:07:12;;;;;;;29.67;13.98;;;6.60;80.00;;;;;;4938453;29;20043;-84
2021/03/30 03:09:38;;;;;;;29.75;15.60;;;6.50;80.20;;;;;;4938343;29;20137;-84
2021/03/30 03:12:06;;;;;;;31.17;14.45;;;6.40;80.40;;;;;;4937426;29;20440;-83
2021/03/30 03:14:34;;;;;;;31.38;13.38;;;6.40;80.70;;;;;;4932905;29;20027;-84
2021/03/30 03:17:00;;;;;;;31.52;14.63;;;6.30;80.90;;;;;;4938633;29;20182;-84
2021/03/30 03:19:27;;;;;;;31.85;13.98;;;6.20;81.10;;;;;;4938485;29;20133;-84
2021/03/30 03:21:54;;;;;;;27.20;13.05;;;6.20;81.30;;;;;;4938403;29;20118;-84
2021/03/30 03:24:20;;;;;;;28.55;13.27;;;6.10;81.50;;;;;;4936791;29;20039;-83
2021/03/30 03:26:46;;;;;;;28.60;14.70;;;5.90;81.70;;;;;;4953524;29;20023;-84
2021/03/30 03:29:17;;;;;;;31.83;14.40;;;5.90;82.10;;;;;;4944030;28;20038;-83
2021/03/30 03:31:43;;;;;;;33.42;15.45;;;5.80;82.50;;;;;;4938372;29;20027;-83
2021/03/30 03:34:12;;;;;;;29.65;15.13;;;5.80;82.80;;;;;;4937725;29;20042;-83
2021/03/30 03:36:41;;;;;;;30.75;14.10;;;5.90;83.00;;;;;;4938385;29;20483;-83
2021/03/30 03:39:12;;;;;;;28.77;14.07;;;5.90;83.00;;;;;;4937783;29;20488;-83
2021/03/30 03:41:38;;;;;;;31.67;15.32;;;5.90;83.00;;;;;;4938220;29;20034;-84
2021/03/30 03:44:05;;;;;;;33.20;15.05;;;5.90;83.20;;;;;;4937327;29;20138;-83
2021/03/30 03:46:31;;;;;;;31.50;15.90;;;5.90;83.20;;;;;;4937974;29;20031;-83
2021/03/30 03:48:57;;;;;;;29.02;14.27;;;5.80;83.30;;;;;;4937811;29;20444;-83
2021/03/30 03:51:24;;;;;;;35.53;15.93;;;5.80;83.50;;;;;;4937782;29;20034;-84
2021/03/30 03:53:53;;;;;;;31.45;14.32;;;5.80;83.70;;;;;;4919210;29;20039;-84
2021/03/30 03:56:36;;;;;;;31.30;14.23;;;5.80;83.70;;;;;;4950551;29;20074;-83
2021/03/30 03:59:07;;;;;;;31.98;14.30;;;5.70;83.70;;;;;;4924852;29;20484;-84
2021/03/30 04:01:41;;;;;;;30.27;13.60;;;5.70;83.90;;;;;;4937864;29;20074;-84
2021/03/30 04:04:15;;;;;;;28.63;13.45;;;5.60;84.20;;;;;;4944768;29;20059;-84
2021/03/30 04:06:48;;;;;;;31.30;14.15;;;5.60;84.90;;;;;;4937291;29;20051;-84
2021/03/30 04:09:17;;;;;;;32.28;14.82;;;5.60;84.10;;;;;;4945191;28;20039;-83
2021/03/30 04:11:44;;;;;;;28.02;13.93;;;5.50;84.10;;;;;;4923830;29;20111;-84
2021/03/30 04:14:11;;;;;;;33.53;14.95;;;5.50;84.30;;;;;;4941859;29;20063;-83
2021/03/30 04:16:37;;;;;;;37.63;15.68;;;5.40;84.60;;;;;;4941792;29;20027;-83
2021/03/30 04:19:02;;;;;;;35.78;14.07;;;5.40;84.80;;;;;;4938063;29;20500;-83
2021/03/30 04:21:32;;;;;;;30.58;13.60;;;5.40;84.90;;;;;;4946307;29;20032;-83
2021/03/30 04:23:58;;;;;;;33.60;15.93;;;5.30;85.70;;;;;;4938268;29;20042;-83
2021/03/30 04:26:25;;;;;;;35.35;14.13;;;5.30;85.20;;;;;;4941599;29;20058;-83
2021/03/30 04:28:51;;;;;;;32.47;14.95;;;5.30;85.20;;;;;;4941585;28;20114;-85
2021/03/30 04:31:17;;;;;;;32.78;15.07;;;5.20;85.20;;;;;;4938714;29;20026;-85
2021/03/30 04:33:42;;;;;;;33.63;15.85;;;5.10;85.30;;;;;;4939058;29;20019;-84
2021/03/30 04:36:08;;;;;;;31.85;15.10;;;5.10;85.60;;;;;;4939978;29;20335;-85
2021/03/30 04:38:34;;;;;;;31.48;14.65;;;5.00;85.80;;;;;;4940970;28;20043;-85
2021/03/30 04:40:59;;;;;;;31.50;14.60;;;5.00;86.00;;;;;;4956384;29;20070;-83
2021/03/30 04:43:25;;;;;;;33.25;14.55;;;5.00;86.20;;;;;;4955589;29;20033;-82
2021/03/30 04:45:51;;;;;;;31.95;14.27;;;5.00;86.30;;;;;;4952459;28;20399;-82
2021/03/30 04:48:17;;;;;;;34.17;14.50;;;5.00;86.30;;;;;;4972688;28;20475;-82
2021/03/30 04:50:44;;;;;;;37.55;15.65;;;5.00;86.40;;;;;;4942571;29;20511;-83
2021/03/30 04:53:10;;;;;;;34.05;14.05;;;5.00;86.40;;;;;;4926855;29;20119;-83
2021/03/30 04:55:36;;;;;;;34.20;15.15;;;5.00;86.50;;;;;;4941083;29;20028;-83
2021/03/30 04:58:02;;;;;;;33.25;14.82;;;5.00;86.60;;;;;;4940937;29;20526;-82
2021/03/30 05:00:28;;;;;;;32.25;15.30;;;5.00;86.60;;;;;;4941021;29;20589;-83
2021/03/30 05:02:53;;;;;;;36.85;15.30;;;5.00;86.70;;;;;;4960180;28;20031;-83
2021/03/30 05:05:19;;;;;;;33.65;14.57;;;5.00;86.70;;;;;;4939624;29;20097;-83
2021/03/30 05:07:45;;;;;;;32.78;14.85;;;5.00;86.80;;;;;;4935054;29;20110;-83
2021/03/30 05:10:11;;;;;;;31.42;13.80;;;4.90;86.90;;;;;;4940188;29;20027;-83
2021/03/30 05:12:37;;;;;;;36.00;14.75;;;4.90;87.00;;;;;;4956438;28;20034;-83
2021/03/30 05:15:03;;;;;;;31.88;14.77;;;4.90;87.10;;;;;;4940660;29;20058;-83
2021/03/30 05:17:29;;;;;;;32.28;15.05;;;4.90;87.20;;;;;;4956132;29;20090;-83
2021/03/30 05:19:55;;;;;;;32.28;15.27;;;4.90;87.30;;;;;;4940842;29;20447;-83
2021/03/30 05:22:20;;;;;;;33.50;14.90;;;4.90;87.40;;;;;;4946976;29;20114;-83
2021/03/30 05:24:46;;;;;;;33.88;15.00;;;4.90;87.40;;;;;;4954071;29;20046;-84
2021/03/30 05:27:11;;;;;;;33.42;15.52;;;4.90;87.40;;;;;;4943476;29;20015;-84
2021/03/30 05:29:43;;;;;;;34.17;15.02;;;5.00;87.40;;;;;;4940140;29;20035;-84
2021/03/30 05:32:16;;;;;;;33.08;15.52;;;5.10;87.40;;;;;;4939718;29;20027;-84
2021/03/30 05:34:47;;;;;;;32.65;16.38;;;5.10;87.50;;;;;;4934840;29;20038;-83
2021/03/30 05:37:13;;;;;;;35.83;15.98;;;5.10;87.40;;;;;;4937352;29;20062;-83
2021/03/30 05:39:39;;;;;;;33.90;15.40;;;5.10;87.30;;;;;;4947798;28;20439;-84
2021/03/30 05:42:05;;;;;;;36.15;16.15;;;5.20;87.40;;;;;;4949394;28;20019;-84
2021/03/30 05:44:32;;;;;;;34.80;15.95;;;5.20;87.50;;;;;;4955310;28;20043;-84
2021/03/30 05:49:30;;;;;;;29.30;14.88;;;5.40;87.30;;;;;;4949801;29;20031;-84
2021/03/30 05:51:57;;;;;;;34.30;14.68;;;5.40;87.20;;;;;;4936782;29;20479;-83
2021/03/30 05:54:25;;;;;;;34.08;15.32;;;5.40;87.30;;;;;;4951536;28;20035;-83
2021/03/30 05:56:52;;;;;;;36.03;16.33;;;5.50;87.30;;;;;;4942458;29;20048;-83
2021/03/30 05:59:20;;;;;;;35.40;15.32;;;5.60;87.30;;;;;;4939043;29;20035;-84
2021/03/30 06:01:46;;;;;;;36.90;16.35;;;5.60;87.30;;;;;;4938790;29;20027;-85
2021/03/30 06:04:13;;;;;;;31.50;16.13;;;5.70;87.10;;;;;;4940077;29;20067;-84
2021/03/30 06:06:40;;;;;;;34.72;15.73;;;5.70;86.90;;;;;;4955379;29;20051;-84
2021/03/30 06:09:06;;;;;;;33.40;15.70;;;5.80;86.90;;;;;;4933698;29;20029;-85
2021/03/30 06:11:31;;;;;;;34.38;16.10;;;5.80;86.90;;;;;;4938982;29;20035;-85
2021/03/30 06:13:57;;;;;;;34.22;16.83;;;5.80;86.90;;;;;;4943939;29;20042;-84
2021/03/30 06:16:31;;;;;;;32.17;15.48;;;5.90;87.00;;;;;;4945714;29;20020;-85
2021/03/30 06:19:05;;;;;;;33.90;16.52;;;5.90;87.00;;;;;;4935360;29;20111;-84
2021/03/30 06:21:34;;;;;;;36.10;17.63;;;6.00;86.90;;;;;;4921689;29;20031;-85
2021/03/30 06:24:00;;;;;;;39.90;17.63;;;6.10;86.80;;;;;;4935123;29;20762;-85
2021/03/30 06:26:27;;;;;;;35.28;16.05;;;6.20;86.70;;;;;;4948609;29;20079;-84
2021/03/30 06:28:54;;;;;;;39.15;16.23;;;6.30;86.60;;;;;;4938143;29;20040;-85
2021/03/30 06:31:19;;;;;;;36.58;17.73;;;6.40;86.60;;;;;;4940629;29;20062;-85
2021/03/30 06:33:47;;;;;;;36.33;18.67;;;6.40;86.40;;;;;;4939702;28;20023;-84
2021/03/30 06:36:19;;;;;;;36.10;17.33;;;6.60;86.40;;;;;;4935337;29;20121;-85
2021/03/30 06:38:54;;;;;;;40.80;19.00;;;6.60;86.30;;;;;;4938963;29;20034;-84
2021/03/30 06:44:26;;;;;;;36.90;18.40;;;6.80;86.10;;;;;;4950044;29;20476;-84
2021/03/30 06:47:14;;;;;;;40.03;18.20;;;7.00;86.10;;;;;;4947405;29;20031;-83
2021/03/30 06:49:54;;;;;;;40.58;19.25;;;7.20;86.00;;;;;;4964231;28;20031;-85
2021/03/30 06:52:25;;;;;;;37.83;18.27;;;7.30;85.90;;;;;;4948196;29;20034;-84
2021/03/30 06:55:15;;;;;;;42.55;22.05;;;7.50;85.80;;;;;;4925239;29;20086;-84
2021/03/30 06:57:46;;;;;;;41.03;20.52;;;7.60;85.80;;;;;;4941920;29;20102;-84
2021/03/30 07:00:19;;;;;;;41.28;20.17;;;7.80;85.60;;;;;;4941738;29;20028;-84
2021/03/30 07:02:50;;;;;;;41.20;20.67;;;8.00;85.70;;;;;;4941092;29;20027;-84
2021/03/30 07:05:24;;;;;;;45.42;21.42;;;8.20;85.40;;;;;;4946608;29;20129;-84
2021/03/30 07:07:56;;;;;;;44.28;22.80;;;8.40;85.10;;;;;;4947270;29;20039;-84
2021/03/30 07:10:23;;;;;;;46.90;23.10;;;8.60;84.70;;;;;;4949646;29;20050;-84
2021/03/30 07:12:50;;;;;;;42.15;21.13;;;8.80;84.30;;;;;;4949718;29;20063;-84
2021/03/30 07:15:24;;;;;;;43.47;21.23;;;9.00;84.00;;;;;;4951930;29;20034;-84
2021/03/30 07:18:19;;;;;;;44.35;21.85;;;9.10;83.50;;;;;;4938657;29;20031;-84
2021/03/30 07:20:49;;;;;;;46.88;22.70;;;9.30;83.20;;;;;;4955473;29;20038;-84
2021/03/30 07:23:24;;;;;;;48.40;24.13;;;9.50;82.90;;;;;;4943756;29;20447;-84
2021/03/30 07:26:19;;;;;;;39.38;21.15;;;9.60;82.50;;;;;;4952186;29;20035;-84
2021/03/30 07:29:05;;;;;;;46.33;20.83;;;9.80;82.20;;;;;;4931304;29;20031;-83
2021/03/30 07:31:41;;;;;;;44.65;22.30;;;10.00;82.10;;;;;;4955686;29;20383;-84
2021/03/30 07:34:11;;;;;;;46.20;22.45;;;10.10;81.80;;;;;;4943915;29;20036;-84
2021/03/30 07:37:04;;;;;;;50.85;22.55;;;10.20;81.30;;;;;;4935456;29;20392;-84
2021/03/30 07:39:33;;;;;;;40.33;21.25;;;10.40;81.00;;;;;;4942230;29;20044;-84
2021/03/30 07:41:59;;;;;;;42.75;20.88;;;10.50;80.50;;;;;;4938674;28;20078;-84
2021/03/30 07:44:27;;;;;;;49.10;23.85;;;10.70;80.40;;;;;;4931260;29;20130;-84
2021/03/30 07:46:54;;;;;;;42.85;21.92;;;10.80;79.90;;;;;;4953107;29;20027;-84
2021/03/30 07:49:27;;;;;;;38.42;21.38;;;11.00;79.50;;;;;;4949541;28;20539;-85
2021/03/30 07:51:52;;;;;;;41.38;21.52;;;11.20;79.10;;;;;;4937874;29;20082;-85
2021/03/30 07:54:23;;;;;;;38.72;20.67;;;11.30;79.00;;;;;;4950903;29;20027;-84
2021/03/30 07:56:51;;;;;;;38.63;22.17;;;11.50;78.70;;;;;;4924112;29;20460;-85
2021/03/30 07:59:43;;;;;;;45.05;21.27;;;11.60;78.10;;;;;;4951876;28;20491;-85
2021/03/30 08:02:20;;;;;;;46.78;22.10;;;11.80;77.70;;;;;;4932342;29;20035;-85
2021/03/30 08:05:10;;;;;;;40.78;22.23;;;12.00;77.50;;;;;;4934649;29;20166;-85
2021/03/30 08:07:45;;;;;;;43.85;22.38;;;12.20;77.20;;;;;;4947593;29;20174;-86
2021/03/30 08:10:45;;;;;;;43.80;22.83;;;12.40;76.40;;;;;;4937546;29;20035;-86
2021/03/30 08:13:46;;;;;;;44.42;23.02;;;12.60;76.10;;;;;;4913510;29;20040;-85
2021/03/30 08:16:14;;;;;;;44.33;22.23;;;12.70;75.60;;;;;;4941918;29;20062;-86
2021/03/30 08:18:42;;;;;;;43.15;21.58;;;12.80;75.00;;;;;;4940781;29;20217;-85
2021/03/30 08:21:12;;;;;;;43.53;23.63;;;12.80;74.60;;;;;;4938129;29;20027;-85
2021/03/30 08:23:54;;;;;;;41.88;21.75;;;12.90;74.40;;;;;;4937147;29;21966;-85
2021/03/30 08:26:27;;;;;;;42.03;23.73;;;13.00;74.10;;;;;;4942113;29;20030;-85
2021/03/30 08:29:01;;;;;;;46.80;22.58;;;13.10;74.10;;;;;;4941633;29;20078;-85
2021/03/30 08:31:35;;;;;;;42.63;22.63;;;13.20;73.90;;;;;;4954136;29;20063;-85
2021/03/30 08:34:04;;;;;;;40.10;23.08;;;13.20;73.50;;;;;;4954261;29;20050;-84
2021/03/30 08:36:43;;;;;;;46.38;23.80;;;13.30;73.00;;;;;;4944691;29;20548;-84
2021/03/30 08:39:30;;;;;;;40.75;22.00;;;13.30;73.10;;;;;;4937448;29;20484;-84
2021/03/30 08:41:57;;;;;;;41.50;22.25;;;13.40;73.30;;;;;;4924019;28;20082;-84
2021/03/30 08:44:37;;;;;;;42.75;23.15;;;13.50;73.00;;;;;;4947332;29;20035;-84
2021/03/30 08:47:03;;;;;;;46.90;24.20;;;13.60;73.00;;;;;;4936738;29;20480;-84
2021/03/30 08:49:32;;;;;;;42.65;22.98;;;13.70;72.60;;;;;;4937141;29;20066;-84
2021/03/30 08:52:10;;;;;;;43.80;22.95;;;13.90;72.60;;;;;;4953677;29;20050;-83
2021/03/30 08:54:50;;;;;;;47.15;24.05;;;14.00;72.30;;;;;;4935776;29;20043;-84
2021/03/30 08:57:22;;;;;;;45.35;23.58;;;14.00;71.70;;;;;;4953328;29;20020;-84
2021/03/30 08:59:47;;;;;;;48.58;23.27;;;14.10;71.10;;;;;;4953339;29;20027;-84
2021/03/30 09:02:13;;;;;;;45.03;23.60;;;14.30;70.90;;;;;;4952750;29;20039;-84
2021/03/30 09:04:43;;;;;;;45.25;24.15;;;14.40;70.40;;;;;;4931784;29;20416;-84
2021/03/30 09:07:09;;;;;;;52.65;25.02;;;14.50;69.60;;;;;;4957351;28;20110;-83
2021/03/30 09:09:37;;;;;;;48.80;23.50;;;14.70;69.40;;;;;;4956964;29;20031;-84
2021/03/30 09:12:21;;;;;;;50.88;25.48;;;14.80;69.30;;;;;;4956470;29;20056;-84
2021/03/30 09:14:59;;;;;;;39.63;21.70;;;15.00;69.30;;;;;;4944386;29;20032;-84
2021/03/30 09:17:25;;;;;;;46.22;24.30;;;15.10;68.60;;;;;;4936619;29;20034;-83
2021/03/30 09:19:51;;;;;;;45.50;24.38;;;15.30;67.90;;;;;;4956939;28;20035;-84
2021/03/30 09:22:25;;;;;;;48.03;24.60;;;15.30;67.30;;;;;;4955832;29;20023;-84
2021/03/30 09:25:20;;;;;;;46.75;24.40;;;15.40;66.50;;;;;;4940128;29;20043;-91
2021/03/30 09:27:46;;;;;;;51.33;26.10;;;15.40;65.70;;;;;;4940088;29;20483;-91
2021/03/30 09:30:23;;;;;;;48.80;25.10;;;15.50;66.10;;;;;;4957083;29;20125;-92
2021/03/30 09:32:50;;;;;;;47.72;25.90;;;15.60;65.70;;;;;;4945095;29;20020;-92
2021/03/30 09:35:21;;;;;;;45.28;26.30;;;15.80;65.20;;;;;;4936907;29;20067;-91
2021/03/30 09:37:56;;;;;;;51.03;25.45;;;15.90;65.30;;;;;;4941255;29;20028;-93
2021/03/30 09:40:28;;;;;;;45.47;24.35;;;16.10;64.40;;;;;;4938727;29;20108;-93
2021/03/30 09:42:54;;;;;;;46.30;24.73;;;16.20;64.40;;;;;;4939391;28;20118;-94
2021/03/30 09:45:29;;;;;;;45.85;25.63;;;16.40;63.60;;;;;;4956256;28;20534;-93
2021/03/30 09:47:56;;;;;;;45.63;24.38;;;16.40;63.20;;;;;;4937826;29;20023;-93
2021/03/30 09:50:24;;;;;;;48.88;24.73;;;16.50;63.40;;;;;;4946732;28;20082;-93
2021/03/30 09:52:50;;;;;;;42.67;24.00;;;16.60;63.10;;;;;;4956324;29;20400;-92
2021/03/30 09:55:38;;;;;;;49.05;24.63;;;16.80;62.90;;;;;;4944307;28;20066;-93
2021/03/30 09:58:09;;;;;;;44.55;23.63;;;17.00;63.20;;;;;;4939817;29;20492;-93
2021/03/30 10:00:38;;;;;;;40.25;23.67;;;17.10;62.40;;;;;;4957331;29;20120;-93
2021/03/30 10:03:05;;;;;;;42.05;23.60;;;17.10;62.30;;;;;;4939096;29;20027;-93
2021/03/30 10:05:38;;;;;;;43.90;23.88;;;17.20;61.70;;;;;;4938387;29;20407;-92
2021/03/30 10:08:05;;;;;;;49.25;24.90;;;17.30;61.10;;;;;;4938838;29;20031;-92
2021/03/30 10:10:45;;;;;;;49.85;25.48;;;17.30;60.70;;;;;;4955903;28;20046;-94
2021/03/30 10:13:29;;;;;;;50.55;25.88;;;17.30;60.50;;;;;;4934020;28;20131;-93
2021/03/30 10:15:56;;;;;;;45.65;24.85;;;17.40;59.70;;;;;;4945620;29;20430;-95
2021/03/30 10:18:25;;;;;;;46.00;25.13;;;17.40;59.30;;;;;;4945644;29;20182;-94
2021/03/30 10:20:57;;;;;;;47.95;25.55;;;17.50;59.20;;;;;;4950446;29;20476;-94
2021/03/30 10:23:26;;;;;;;42.90;24.63;;;17.60;59.10;;;;;;4939715;28;20473;-90
2021/03/30 10:25:53;;;;;;;46.63;24.65;;;17.70;59.20;;;;;;4941518;29;20045;-91
2021/03/30 10:28:30;;;;;;;49.67;25.20;;;17.80;58.20;;;;;;4933888;29;20028;-94
2021/03/30 10:31:21;;;;;;;45.60;24.80;;;17.90;57.90;;;;;;4954192;29;20062;-94
2021/03/30 10:33:49;;;;;;;43.45;23.90;;;18.00;57.40;;;;;;4942310;28;20035;-94
2021/03/30 10:36:15;;;;;;;46.42;24.25;;;18.20;57.30;;;;;;4949250;29;20019;-92
2021/03/30 10:39:07;;;;;;;45.55;23.95;;;18.20;55.80;;;;;;4939027;29;20031;-93
2021/03/30 10:41:38;;;;;;;50.27;27.10;;;18.30;55.40;;;;;;4941126;29;20038;-92
2021/03/30 10:44:05;;;;;;;46.33;25.05;;;18.30;55.00;;;;;;4935425;29;20035;-93
2021/03/30 10:46:43;;;;;;;40.80;23.58;;;18.40;55.20;;;;;;4949125;29;20448;-92
2021/03/30 10:49:10;;;;;;;44.22;24.35;;;18.60;54.40;;;;;;4936547;29;20031;-84
2021/03/30 10:51:41;;;;;;;38.55;22.65;;;18.60;53.60;;;;;;4951269;29;20055;-84
2021/03/30 10:54:07;;;;;;;41.40;22.05;;;18.80;53.60;;;;;;4938980;29;20483;-84
2021/03/30 10:56:34;;;;;;;32.15;18.33;;;18.80;52.80;;;;;;4938837;29;20027;-84
2021/03/30 10:59:05;;;;;;;29.50;16.65;;;18.90;52.00;;;;;;4938942;29;20059;-84
2021/03/30 11:01:31;;;;;;;36.00;17.42;;;19.00;51.60;;;;;;4939487;29;20031;-84
2021/03/30 11:03:56;;;;;;;38.35;18.08;;;19.10;51.40;;;;;;4937721;29;20047;-84
2021/03/30 11:06:22;;;;;;;24.88;13.80;;;19.20;51.20;;;;;;4954705;29;20055;-85
2021/03/30 11:08:47;;;;;;;25.25;14.35;;;19.20;50.90;;;;;;4938367;29;20038;-84
2021/03/30 11:11:13;;;;;;;20.50;11.40;;;19.30;50.00;;;;;;4938377;29;20085;-84
2021/03/30 11:13:38;;;;;;;20.05;10.88;;;19.30;48.90;;;;;;4935190;29;20023;-84
2021/03/30 11:16:05;;;;;;;19.42;11.75;;;19.30;48.10;;;;;;4944306;29;20042;-84
2021/03/30 11:18:31;;;;;;;20.45;10.82;;;19.40;47.80;;;;;;4954464;28;20035;-84
2021/03/30 11:20:56;;;;;;;21.30;11.63;;;19.40;47.30;;;;;;4954306;29;20020;-84
2021/03/30 11:23:22;;;;;;;24.08;14.52;;;19.40;46.80;;;;;;4952567;29;20023;-84
2021/03/30 11:25:48;;;;;;;30.63;15.20;;;19.50;46.50;;;;;;4954228;29;20097;-83
2021/03/30 11:28:14;;;;;;;33.60;16.23;;;19.50;46.70;;;;;;4936219;29;20023;-85
2021/03/30 11:30:50;;;;;;;30.02;17.42;;;19.60;46.10;;;;;;4938395;29;20031;-85
2021/03/30 11:33:22;;;;;;;28.27;15.75;;;19.60;46.60;;;;;;4937108;29;20023;-84
2021/03/30 11:38:22;;;;;;;30.05;17.58;;;19.80;45.80;;;;;;4954673;28;20467;-84
2021/03/30 11:40:48;;;;;;;31.88;17.02;;;19.90;46.10;;;;;;4926685;29;20119;-84
2021/03/30 11:43:14;;;;;;;27.95;15.10;;;19.90;46.00;;;;;;4937726;29;20054;-84
2021/03/30 11:45:40;;;;;;;31.20;15.77;;;20.00;44.40;;;;;;4937834;29;20126;-83
2021/03/30 11:48:06;;;;;;;30.85;17.10;;;20.00;44.10;;;;;;4938481;29;20078;-84
2021/03/30 11:50:32;;;;;;;26.77;14.35;;;20.00;44.10;;;;;;4937067;29;20404;-84
2021/03/30 11:52:58;;;;;;;32.70;17.38;;;20.10;44.10;;;;;;4937905;29;20023;-84
2021/03/30 11:55:25;;;;;;;33.30;18.95;;;20.20;44.70;;;;;;4936100;29;20063;-83
2021/03/30 11:57:51;;;;;;;31.95;17.50;;;20.30;43.90;;;;;;4937657;29;20035;-83
2021/03/30 12:00:19;;;;;;;33.38;18.23;;;20.30;44.70;;;;;;4937591;29;20034;-83
2021/03/30 12:02:45;;;;;;;35.15;18.52;;;20.40;44.90;;;;;;4937631;29;20114;-84
2021/03/30 12:05:11;;;;;;;30.63;16.77;;;20.60;44.10;;;;;;4936232;29;20058;-84
2021/03/30 12:07:36;;;;;;;28.30;16.45;;;20.60;44.20;;;;;;4953589;29;20047;-84
2021/03/30 12:10:03;;;;;;;27.95;16.52;;;20.80;43.70;;;;;;4937905;29;20046;-83
2021/03/30 12:12:30;;;;;;;31.35;16.88;;;20.80;43.30;;;;;;4937743;29;20027;-83
2021/03/30 12:14:55;;;;;;;26.17;16.13;;;20.80;44.20;;;;;;4937652;29;20540;-84
2021/03/30 12:17:21;;;;;;;31.10;14.93;;;20.90;43.90;;;;;;4937609;29;20027;-84
2021/03/30 12:19:46;;;;;;;27.88;16.25;;;21.00;42.10;;;;;;4937715;29;20117;-83
2021/03/30 12:22:12;;;;;;;27.27;15.20;;;21.00;41.80;;;;;;4953759;29;20498;-84
2021/03/30 12:24:38;;;;;;;27.80;15.82;;;20.90;41.60;;;;;;4953704;29;20036;-84
2021/03/30 12:27:09;;;;;;;26.67;15.07;;;20.90;41.70;;;;;;4953680;29;20122;-84
2021/03/30 12:29:35;;;;;;;31.33;15.98;;;20.90;42.00;;;;;;4935348;29;20027;-84
2021/03/30 12:32:00;;;;;;;28.20;15.35;;;20.90;41.90;;;;;;4937849;29;20028;-83
2021/03/30 12:34:26;;;;;;;30.00;17.60;;;20.90;42.50;;;;;;4956358;29;20045;-84
2021/03/30 12:36:52;;;;;;;30.25;17.50;;;20.90;42.50;;;;;;4952419;29;20015;-83
2021/03/30 12:39:18;;;;;;;32.20;18.05;;;20.90;42.40;;;;;;4944535;29;20449;-83
2021/03/30 12:41:45;;;;;;;27.20;16.02;;;21.00;42.30;;;;;;4941208;29;20118;-83
2021/03/30 12:44:11;;;;;;;29.63;16.45;;;21.00;42.60;;;;;;4940388;29;20035;-83
2021/03/30 12:46:36;;;;;;;31.88;17.88;;;21.20;42.80;;;;;;4940700;29;20034;-83
2021/03/30 12:49:02;;;;;;;27.98;15.50;;;21.30;42.40;;;;;;4941065;29;20023;-83
2021/03/30 12:51:28;;;;;;;28.77;15.32;;;21.50;42.40;;;;;;4940953;29;20027;-83
2021/03/30 12:53:56;;;;;;;28.75;15.93;;;21.60;41.90;;;;;;4940777;29;20102;-85